Athol, Kansas
Current Conditions -  °F | °C
As of 4:15 PM on Sunday 25 Jan 2015 (Local Time) from KHDE Reporting Station
Clear Clear  
Wind Chill: 40°   Ceiling: Unl
Heat Index: 45°   Visibility: 10mi
Dew Point: 26°   Wind: 9mph
Humidity: 47%   Direction: 350°N
Pressure: 30.08"   Gusts: NA
Location:  39.77°N, 98.92°W
Report Text: KHDE 252215Z AUTO 35008KT 10SM CLR 07/M03 A3008 RMK AO2 T00731033
Loading
Personal Weather Stations






























Interactive Weather Map New forecast layout! Learn more

10-Day Weather Forecast

Advertisements
Track Severe Weather on mobile